Time;durP1;ratioP1;P1;durP2;ratioP2;P2;SDS_P1;SDS_P2;PMS_P1;PMS_P2;Temp;Humidity;BMP_temperature;BMP_pressure;BME280_temperature;BME280_humidity;BME280_pressure;Samples;Min_cycle;Max_cycle;Signal;HPM_P1;HPM_P2
2022/02/04 00:06:07;;;;;;;9.23;5.18;;;7.30;99.90;;;;;;5027773;28;20729;-50
2022/02/04 00:08:59;;;;;;;4.68;4.22;;;7.30;99.90;;;;;;5028062;28;20721;-50
2022/02/04 00:22:54;;;;;;;5.78;4.32;;;7.30;99.90;;;;;;5042591;28;20214;-51
2022/02/04 00:25:32;;;;;;;4.57;4.18;;;7.30;99.90;;;;;;5027191;28;20260;-51
2022/02/04 00:28:06;;;;;;;4.53;4.13;;;7.30;99.90;;;;;;5043452;28;20644;-51
2022/02/04 00:30:38;;;;;;;3.92;3.63;;;7.30;99.90;;;;;;5028222;28;20576;-51
2022/02/04 00:33:10;;;;;;;5.38;4.18;;;7.30;99.90;;;;;;5032293;28;20235;-51
2022/02/04 00:35:50;;;;;;;4.78;4.18;;;7.30;99.90;;;;;;5034195;28;20224;-51
2022/02/04 00:38:26;;;;;;;4.60;3.72;;;7.30;99.90;;;;;;5028006;28;20203;-51
2022/02/04 00:41:01;;;;;;;5.07;4.40;;;7.30;99.90;;;;;;5031076;28;20699;-51
2022/02/04 00:43:30;;;;;;;4.20;3.85;;;7.30;99.90;;;;;;5048675;28;20188;-52
2022/02/04 00:46:06;;;;;;;4.25;3.85;;;7.30;99.90;;;;;;5047693;28;20226;-51
2022/02/04 00:49:02;;;;;;;6.15;3.65;;;7.30;99.90;;;;;;5031255;28;24962;-51
2022/02/04 00:51:37;;;;;;;4.38;3.97;;;7.30;99.90;;;;;;5032270;28;20210;-51
2022/02/04 00:54:17;;;;;;;6.22;4.05;;;7.30;99.90;;;;;;5032241;28;20219;-51
2022/02/04 00:57:03;;;;;;;3.90;3.50;;;7.30;99.90;;;;;;5044747;28;20198;-50
2022/02/04 01:13:33;;;;;;;4.40;4.00;;;7.30;99.90;;;;;;5037497;28;20746;-51
2022/02/04 01:27:09;;;;;;;4.47;3.80;;;7.30;99.90;;;;;;5048976;28;20190;-51
2022/02/04 01:29:50;;;;;;;4.07;3.78;;;7.30;99.90;;;;;;5031030;28;20319;-51
2022/02/04 01:32:18;;;;;;;4.28;3.80;;;7.30;99.90;;;;;;5031554;28;20195;-51
2022/02/04 01:34:46;;;;;;;5.38;4.25;;;7.30;99.90;;;;;;5044516;28;20279;-51
2022/02/04 01:37:16;;;;;;;3.92;3.53;;;7.30;99.90;;;;;;5051908;28;20223;-51
2022/02/04 01:39:44;;;;;;;5.00;4.38;;;7.30;99.90;;;;;;5050307;28;20701;-51
2022/02/04 01:42:12;;;;;;;4.20;3.80;;;7.30;99.90;;;;;;5047060;28;20624;-50
2022/02/04 01:44:40;;;;;;;4.90;3.80;;;7.30;99.90;;;;;;5049551;28;20714;-51
2022/02/04 01:47:10;;;;;;;3.05;2.85;;;7.30;99.90;;;;;;5060589;28;20193;-52
2022/02/04 01:49:38;;;;;;;3.80;3.45;;;7.30;99.90;;;;;;5031292;28;20221;-51
2022/02/04 01:52:07;;;;;;;4.15;3.63;;;7.30;99.90;;;;;;5031518;28;20197;-51
2022/02/04 01:54:37;;;;;;;3.60;3.33;;;7.30;99.90;;;;;;5030967;28;20221;-51
2022/02/04 01:57:05;;;;;;;4.47;4.07;;;7.30;99.90;;;;;;5043843;28;20301;-51
2022/02/04 01:59:38;;;;;;;3.80;3.47;;;7.30;99.90;;;;;;5032678;28;20244;-50
2022/02/04 02:02:08;;;;;;;4.50;4.07;;;7.30;99.90;;;;;;5030577;28;20221;-52
2022/02/04 02:04:36;;;;;;;4.63;3.63;;;7.30;99.90;;;;;;5041401;28;20789;-52
2022/02/04 02:07:14;;;;;;;5.10;3.90;;;7.30;99.90;;;;;;5051671;28;20246;-51
2022/02/04 02:09:54;;;;;;;4.63;4.00;;;7.30;99.90;;;;;;5050789;28;20345;-51
2022/02/04 02:12:25;;;;;;;3.78;3.45;;;7.30;99.90;;;;;;5050392;28;20448;-51
2022/02/04 02:15:04;;;;;;;4.72;4.00;;;7.30;99.90;;;;;;5036390;28;20222;-52
2022/02/04 02:40:23;;;;;;;4.88;3.45;;;7.20;99.90;;;;;;5034111;28;20696;-52
2022/02/04 02:45:44;;;;;;;4.10;3.55;;;7.30;99.90;;;;;;5048575;28;20287;-51
2022/02/04 02:48:30;;;;;;;4.05;3.65;;;7.30;99.90;;;;;;5047834;28;20194;-52
2022/02/04 02:51:25;;;;;;;4.20;3.80;;;7.20;99.90;;;;;;5030465;28;20302;-52
2022/02/04 02:54:03;;;;;;;3.55;3.20;;;7.30;99.90;;;;;;5041466;28;20184;-51
2022/02/04 02:59:22;;;;;;;4.20;3.80;;;7.30;99.90;;;;;;5029941;28;20245;-51
2022/02/04 03:01:51;;;;;;;3.60;3.20;;;7.30;99.90;;;;;;5045685;28;20207;-52
2022/02/04 03:04:20;;;;;;;3.92;3.20;;;7.30;99.90;;;;;;5031569;28;20236;-51
2022/02/04 03:06:49;;;;;;;4.07;3.65;;;7.30;99.90;;;;;;5044825;28;20277;-51
2022/02/04 03:09:18;;;;;;;3.80;3.50;;;7.30;99.90;;;;;;5049405;28;20248;-50
2022/02/04 03:11:47;;;;;;;4.22;3.83;;;7.30;99.90;;;;;;5046656;28;20275;-51
2022/02/04 03:14:18;;;;;;;3.83;3.53;;;7.20;99.90;;;;;;5034160;28;20214;-51
2022/02/04 03:16:46;;;;;;;4.75;3.92;;;7.30;99.90;;;;;;5049259;28;20209;-51
2022/02/04 03:19:14;;;;;;;3.88;3.58;;;7.30;99.90;;;;;;5038130;28;20217;-51
2022/02/04 03:21:45;;;;;;;3.88;3.55;;;7.20;99.90;;;;;;5049876;28;20280;-51
2022/02/04 03:24:17;;;;;;;3.85;3.50;;;7.30;99.90;;;;;;5048592;28;20658;-51
2022/02/04 03:26:49;;;;;;;4.13;3.70;;;7.30;99.90;;;;;;5048134;28;20196;-51
2022/02/04 03:29:24;;;;;;;6.32;3.97;;;7.30;99.90;;;;;;5031289;28;20299;-50
2022/02/04 03:31:56;;;;;;;3.88;3.00;;;7.30;99.90;;;;;;5030644;28;20531;-51
2022/02/04 03:34:24;;;;;;;4.72;4.18;;;7.30;99.90;;;;;;5043542;28;20618;-51
2022/02/04 03:36:52;;;;;;;4.28;3.88;;;7.30;99.90;;;;;;5050312;28;20679;-51
2022/02/04 03:39:20;;;;;;;3.60;3.30;;;7.30;99.90;;;;;;5049276;28;20227;-51
2022/02/04 03:41:53;;;;;;;4.22;3.65;;;7.30;99.90;;;;;;5045490;28;20198;-51
2022/02/04 03:44:21;;;;;;;4.60;3.70;;;7.30;99.90;;;;;;5048640;28;20224;-50
2022/02/04 03:46:49;;;;;;;4.10;3.10;;;7.30;99.90;;;;;;5045678;28;20192;-51
2022/02/04 03:49:17;;;;;;;3.90;3.50;;;7.30;99.90;;;;;;5046217;28;20222;-51
2022/02/04 03:51:45;;;;;;;3.95;3.55;;;7.30;99.90;;;;;;5047376;28;20284;-50
2022/02/04 03:54:14;;;;;;;2.90;2.70;;;7.30;99.90;;;;;;5028420;28;20251;-51
2022/02/04 03:56:42;;;;;;;5.80;3.65;;;7.30;99.90;;;;;;5032293;28;20185;-51
2022/02/04 03:59:11;;;;;;;3.95;3.55;;;7.30;99.90;;;;;;5036896;28;20225;-52
2022/02/04 04:01:39;;;;;;;3.40;3.10;;;7.20;99.90;;;;;;5028767;28;20223;-51
2022/02/04 04:04:07;;;;;;;4.40;4.00;;;7.20;99.90;;;;;;5038062;28;20318;-51
2022/02/04 04:06:35;;;;;;;4.97;3.65;;;7.20;99.90;;;;;;5039174;28;20189;-50
2022/02/04 04:09:06;;;;;;;3.72;3.15;;;7.20;99.90;;;;;;5031893;28;20229;-51
2022/02/04 04:11:34;;;;;;;3.42;3.13;;;7.20;99.90;;;;;;5036470;28;20799;-51
2022/02/04 04:14:04;;;;;;;4.70;4.25;;;7.20;99.90;;;;;;5027550;28;20225;-51
2022/02/04 04:16:36;;;;;;;3.60;3.30;;;7.20;99.90;;;;;;5031776;28;20312;-51
2022/02/04 04:19:04;;;;;;;3.33;3.03;;;7.20;99.90;;;;;;5045635;28;20596;-50
2022/02/04 04:21:32;;;;;;;3.40;3.10;;;7.20;99.90;;;;;;5045914;28;20508;-51
2022/02/04 04:24:01;;;;;;;3.63;3.33;;;7.20;99.90;;;;;;5030838;28;20221;-51
2022/02/04 04:26:29;;;;;;;3.90;3.00;;;7.20;99.90;;;;;;5024188;28;20208;-51
2022/02/04 04:28:57;;;;;;;4.15;3.55;;;7.20;99.90;;;;;;5042306;28;20660;-51
2022/02/04 04:31:25;;;;;;;4.15;3.78;;;7.20;99.90;;;;;;5032114;28;20235;-51
2022/02/04 04:33:55;;;;;;;4.25;2.85;;;7.20;99.90;;;;;;5045948;28;20184;-51
2022/02/04 04:36:23;;;;;;;3.35;3.05;;;7.20;99.90;;;;;;5029985;28;20217;-51
2022/02/04 04:38:57;;;;;;;3.50;3.20;;;7.20;99.90;;;;;;5047562;28;20692;-51
2022/02/04 04:41:33;;;;;;;3.10;2.80;;;7.20;99.90;;;;;;5047681;28;20198;-51
2022/02/04 04:44:25;;;;;;;3.55;3.20;;;7.20;99.90;;;;;;5036920;28;20785;-51
2022/02/04 05:26:23;;;;;;;3.15;2.80;;;7.20;99.90;;;;;;5047736;28;20217;-51
2022/02/04 05:29:03;;;;;;;3.63;2.47;;;7.20;99.90;;;;;;5034078;28;20656;-52
2022/02/04 05:31:33;;;;;;;3.30;3.00;;;7.20;99.90;;;;;;5050169;28;20200;-50
2022/02/04 05:34:01;;;;;;;2.72;2.53;;;7.20;99.90;;;;;;5048008;28;20222;-51
2022/02/04 05:36:30;;;;;;;3.92;3.53;;;7.20;99.90;;;;;;5030856;28;20718;-51
2022/02/04 05:39:00;;;;;;;3.67;3.10;;;7.20;99.90;;;;;;5030155;28;20236;-51
2022/02/04 05:41:32;;;;;;;3.05;2.78;;;7.20;99.90;;;;;;5048737;28;20188;-52
2022/02/04 05:44:04;;;;;;;3.03;2.72;;;7.20;99.90;;;;;;5042590;28;20243;-50
2022/02/04 05:46:37;;;;;;;3.17;2.85;;;7.20;99.90;;;;;;5050249;28;20195;-51
2022/02/04 05:49:06;;;;;;;3.58;3.10;;;7.20;99.90;;;;;;5049110;28;20652;-51
2022/02/04 05:51:43;;;;;;;3.45;2.80;;;7.20;99.90;;;;;;5031505;28;20297;-51
2022/02/04 05:54:18;;;;;;;3.53;3.22;;;7.20;99.90;;;;;;5029712;28;20271;-52
2022/02/04 05:56:55;;;;;;;3.00;2.70;;;7.20;99.90;;;;;;5040937;28;20192;-51
2022/02/04 05:59:32;;;;;;;2.70;2.47;;;7.20;99.90;;;;;;5037718;28;20770;-51
2022/02/04 06:02:11;;;;;;;3.50;3.20;;;7.20;99.90;;;;;;5030849;28;20250;-51
2022/02/04 06:04:53;;;;;;;3.42;3.13;;;7.20;99.90;;;;;;5033010;28;20758;-51
2022/02/04 06:07:31;;;;;;;3.53;2.70;;;7.20;99.90;;;;;;5030107;28;20199;-51
2022/02/04 06:10:21;;;;;;;3.15;2.85;;;7.20;99.90;;;;;;5035920;28;20226;-51
2022/02/04 06:13:13;;;;;;;4.07;3.25;;;7.20;99.90;;;;;;5048861;28;20203;-50
2022/02/04 06:23:54;;;;;;;2.75;2.55;;;7.20;99.90;;;;;;5040762;28;20199;-51
2022/02/04 06:26:25;;;;;;;3.45;3.15;;;7.20;99.90;;;;;;5042334;28;20345;-51
2022/02/04 06:28:53;;;;;;;3.30;2.75;;;7.20;99.90;;;;;;5049100;28;20221;-50
2022/02/04 06:31:23;;;;;;;4.38;2.72;;;7.20;99.90;;;;;;5049201;28;20206;-51
2022/02/04 06:33:51;;;;;;;3.10;2.80;;;7.20;99.90;;;;;;5048663;28;20294;-51
2022/02/04 06:36:19;;;;;;;3.00;2.70;;;7.20;99.90;;;;;;5046882;28;20218;-50
2022/02/04 06:38:47;;;;;;;3.03;2.72;;;7.20;99.90;;;;;;5048441;28;20191;-51
2022/02/04 06:41:15;;;;;;;2.80;2.60;;;7.20;99.90;;;;;;5049168;28;20226;-52
2022/02/04 06:43:44;;;;;;;4.88;2.95;;;7.20;99.90;;;;;;5039032;28;20196;-51
2022/02/04 06:46:13;;;;;;;3.40;3.10;;;7.20;99.90;;;;;;5029638;28;20743;-50
2022/02/04 06:48:41;;;;;;;3.40;3.10;;;7.20;99.90;;;;;;5029090;28;20209;-51
2022/02/04 06:51:09;;;;;;;3.47;3.10;;;7.20;99.90;;;;;;5035559;28;20258;-51
2022/02/04 06:53:38;;;;;;;6.00;2.63;;;7.20;99.90;;;;;;5030198;28;20224;-51
2022/02/04 06:56:06;;;;;;;3.22;2.78;;;7.20;99.90;;;;;;5036495;28;20573;-52
2022/02/04 06:58:34;;;;;;;3.10;2.80;;;7.20;99.90;;;;;;5046480;28;20226;-51
2022/02/04 07:01:04;;;;;;;2.78;2.58;;;7.20;99.90;;;;;;5034454;28;20256;-51
2022/02/04 07:03:33;;;;;;;2.40;2.20;;;7.20;99.90;;;;;;5044994;28;20201;-51
2022/02/04 07:06:04;;;;;;;3.30;3.00;;;7.20;99.90;;;;;;5048370;28;20258;-51
2022/02/04 07:08:46;;;;;;;4.20;3.00;;;7.20;99.90;;;;;;5036210;28;20204;-51
2022/02/04 07:11:42;;;;;;;2.95;2.67;;;7.20;99.90;;;;;;5035504;28;20224;-51
2022/02/04 07:14:19;;;;;;;3.30;2.60;;;7.20;99.90;;;;;;5031616;28;20213;-50
2022/02/04 07:17:11;;;;;;;2.70;2.20;;;7.20;99.90;;;;;;5028196;28;20227;-50
2022/02/04 07:19:48;;;;;;;2.55;2.28;;;7.20;99.90;;;;;;5036056;28;20303;-50
2022/02/04 07:22:19;;;;;;;3.13;2.83;;;7.20;99.90;;;;;;5027870;28;20196;-51
2022/02/04 07:24:49;;;;;;;2.42;2.22;;;7.20;99.90;;;;;;5030308;28;20276;-50
2022/02/04 07:27:18;;;;;;;3.25;2.70;;;7.20;99.90;;;;;;5039780;28;20660;-51
2022/02/04 07:29:54;;;;;;;3.30;2.88;;;7.20;99.90;;;;;;5028339;28;20232;-51
2022/02/04 07:32:31;;;;;;;4.47;3.15;;;7.20;99.90;;;;;;5029320;28;20200;-51
2022/02/04 07:35:19;;;;;;;3.10;2.80;;;7.20;99.90;;;;;;5047736;28;20688;-51
2022/02/04 07:40:56;;;;;;;3.15;2.75;;;7.20;99.90;;;;;;5048580;28;20316;-51
2022/02/04 07:43:27;;;;;;;2.95;2.72;;;7.20;99.90;;;;;;5048478;28;20196;-50
2022/02/04 07:45:55;;;;;;;2.55;2.25;;;7.20;99.90;;;;;;5048002;28;20220;-50
2022/02/04 07:48:28;;;;;;;2.80;2.60;;;7.20;99.90;;;;;;5047120;28;20702;-51
2022/02/04 07:50:57;;;;;;;3.50;2.65;;;7.20;99.90;;;;;;5048614;28;20232;-50
2022/02/04 07:53:30;;;;;;;3.25;2.95;;;7.20;99.90;;;;;;5036306;28;20237;-51
2022/02/04 07:55:58;;;;;;;2.65;2.38;;;7.20;99.90;;;;;;5048132;28;20229;-50
2022/02/04 07:58:27;;;;;;;2.65;2.45;;;7.20;99.90;;;;;;5046073;28;20238;-50
2022/02/04 08:01:00;;;;;;;2.78;2.40;;;7.20;99.90;;;;;;5030923;28;20234;-50
2022/02/04 08:03:34;;;;;;;3.40;3.10;;;7.20;99.90;;;;;;5035175;28;20554;-50
2022/02/04 08:06:08;;;;;;;3.35;2.85;;;7.20;99.90;;;;;;5029244;28;20229;-50
2022/02/04 08:08:47;;;;;;;2.67;2.47;;;7.20;99.90;;;;;;5026977;28;20218;-51
2022/02/04 08:22:47;;;;;;;2.75;2.10;;;7.20;99.90;;;;;;5047496;28;20200;-51
2022/02/04 08:31:17;;;;;;;2.83;2.63;;;7.20;99.90;;;;;;5007619;28;20233;-51
2022/02/04 08:34:07;;;;;;;2.60;2.08;;;7.20;99.90;;;;;;5016287;28;20234;-51
2022/02/04 08:37:20;;;;;;;2.50;2.30;;;7.20;99.90;;;;;;5012455;28;20237;-52
2022/02/04 08:51:14;;;;;;;2.88;2.60;;;7.20;99.90;;;;;;5032659;28;20913;-50
2022/02/04 08:53:58;;;;;;;2.60;2.40;;;7.20;99.90;;;;;;5048190;28;20190;-51
2022/02/04 08:56:36;;;;;;;3.00;2.70;;;7.20;99.90;;;;;;5030992;28;20220;-51
2022/02/04 08:59:11;;;;;;;2.92;2.10;;;7.20;99.90;;;;;;5038345;28;20230;-51
2022/02/04 09:01:48;;;;;;;2.42;1.98;;;7.20;99.90;;;;;;5048949;28;20679;-51
2022/02/04 09:04:19;;;;;;;2.10;2.00;;;7.20;99.90;;;;;;5038750;28;20221;-50
2022/02/04 09:06:53;;;;;;;2.30;2.10;;;7.20;99.90;;;;;;5051159;28;20211;-51
2022/02/04 09:09:43;;;;;;;2.45;2.33;;;7.20;99.90;;;;;;5050910;28;20219;-51
2022/02/04 09:16:48;;;;;;;2.20;2.03;;;7.30;99.90;;;;;;5048003;28;20333;-50
2022/02/04 09:20:43;;;;;;;1.90;1.80;;;7.30;99.90;;;;;;5008538;28;20224;-51
2022/02/04 09:23:12;;;;;;;1.88;1.77;;;7.30;99.90;;;;;;5024488;28;20195;-51
2022/02/04 09:25:41;;;;;;;1.90;1.70;;;7.30;99.90;;;;;;5029145;28;20760;-50
2022/02/04 09:28:10;;;;;;;2.85;1.90;;;7.30;99.90;;;;;;5011090;28;20194;-51
2022/02/04 09:30:38;;;;;;;1.80;1.70;;;7.30;99.90;;;;;;5013829;28;20229;-51
2022/02/04 09:33:07;;;;;;;1.73;1.63;;;7.40;99.90;;;;;;5020490;28;20677;-50
2022/02/04 09:35:35;;;;;;;2.00;1.90;;;7.40;99.90;;;;;;5026587;28;20244;-51
2022/02/04 09:38:03;;;;;;;2.28;1.65;;;7.40;99.90;;;;;;5026687;28;20289;-51
2022/02/04 09:40:35;;;;;;;1.98;1.80;;;7.40;99.90;;;;;;5010779;28;20253;-51
2022/02/04 09:43:06;;;;;;;1.88;1.77;;;7.40;99.90;;;;;;5031280;28;20197;-50
2022/02/04 09:45:36;;;;;;;1.60;1.50;;;7.40;99.90;;;;;;5030172;28;20712;-51
2022/02/04 09:48:07;;;;;;;2.08;1.65;;;7.30;99.90;;;;;;5027036;28;20217;-51
2022/02/04 09:50:40;;;;;;;2.38;2.17;;;7.40;99.90;;;;;;5010842;28;20234;-51
2022/02/04 10:07:26;;;;;;;2.00;1.67;;;7.40;99.90;;;;;;5039098;28;20202;-51
2022/02/04 10:13:18;;;;;;;1.50;1.40;;;7.40;99.90;;;;;;4982002;28;20284;-51
2022/02/04 10:15:58;;;;;;;1.70;1.42;;;7.40;99.90;;;;;;5043364;28;20249;-52
2022/02/04 10:18:33;;;;;;;1.77;1.55;;;7.40;99.90;;;;;;5037992;28;20221;-51
2022/02/04 10:21:06;;;;;;;1.70;1.55;;;7.40;99.90;;;;;;5050506;28;20228;-51
2022/02/04 10:23:49;;;;;;;1.50;1.40;;;7.40;99.90;;;;;;5050913;28;20810;-51
2022/02/04 10:26:18;;;;;;;1.50;1.25;;;7.40;99.90;;;;;;5050338;28;20287;-50
2022/02/04 10:28:47;;;;;;;1.60;1.40;;;7.40;99.90;;;;;;5049673;28;20281;-52
2022/02/04 10:31:20;;;;;;;1.75;1.60;;;7.40;99.90;;;;;;5045436;28;20217;-50
2022/02/04 10:34:00;;;;;;;1.45;1.35;;;7.40;99.90;;;;;;5049340;28;20194;-51
2022/02/04 10:36:41;;;;;;;2.03;1.60;;;7.40;99.90;;;;;;5031775;28;20196;-51
2022/02/04 10:39:35;;;;;;;1.23;1.13;;;7.40;99.90;;;;;;5046326;28;20569;-51
2022/02/04 10:42:19;;;;;;;1.65;1.55;;;7.40;99.90;;;;;;5036205;28;20655;-51
2022/02/04 10:45:02;;;;;;;1.60;1.50;;;7.40;99.90;;;;;;5049318;28;20222;-51
2022/02/04 10:47:40;;;;;;;1.80;1.48;;;7.40;99.90;;;;;;5049504;28;20231;-51
2022/02/04 10:50:43;;;;;;;1.90;1.63;;;7.40;99.90;;;;;;5029852;28;20690;-51
2022/02/04 10:53:36;;;;;;;1.52;1.00;;;7.40;99.90;;;;;;5030810;28;20191;-51
2022/02/04 10:56:29;;;;;;;1.27;1.10;;;7.40;99.90;;;;;;5032376;28;20740;-51
2022/02/04 10:59:23;;;;;;;1.45;1.30;;;7.40;99.90;;;;;;5029669;28;20265;-51
2022/02/04 11:05:11;;;;;;;1.20;1.05;;;7.40;99.90;;;;;;4983963;28;20252;-51
2022/02/04 11:22:05;;;;;;;1.52;1.42;;;7.40;99.90;;;;;;5030042;28;20185;-51
2022/02/04 11:33:46;;;;;;;1.30;1.20;;;7.30;99.90;;;;;;5044624;28;20204;-50
2022/02/04 11:51:40;;;;;;;1.30;1.20;;;7.30;99.90;;;;;;4980390;28;20686;-51
2022/02/04 11:54:35;;;;;;;1.25;0.90;;;7.40;99.90;;;;;;5016563;28;20623;-51
2022/02/04 11:57:26;;;;;;;1.27;1.17;;;7.40;99.90;;;;;;5025971;28;20226;-51
2022/02/04 11:59:59;;;;;;;1.67;1.40;;;7.30;99.90;;;;;;5014498;28;20222;-52
2022/02/04 12:02:35;;;;;;;1.58;1.20;;;7.40;99.90;;;;;;5027647;28;20200;-51
2022/02/04 12:05:27;;;;;;;1.20;1.10;;;7.40;99.90;;;;;;5026812;28;20221;-52
2022/02/04 12:08:05;;;;;;;1.25;1.15;;;7.40;99.90;;;;;;5027699;28;20705;-51
2022/02/04 12:10:43;;;;;;;1.25;1.15;;;7.40;99.90;;;;;;5025402;28;20847;-51
2022/02/04 12:13:12;;;;;;;1.25;1.08;;;7.40;99.90;;;;;;5029478;28;20628;-50
2022/02/04 12:16:04;;;;;;;1.20;1.00;;;7.40;99.90;;;;;;5029065;28;20244;-51
2022/02/04 12:19:11;;;;;;;1.40;1.30;;;7.40;99.90;;;;;;5022774;28;20186;-51
2022/02/04 12:21:45;;;;;;;1.40;1.15;;;7.40;99.90;;;;;;5013091;28;20546;-52
2022/02/04 12:24:34;;;;;;;1.33;1.15;;;7.30;99.90;;;;;;5023809;28;20303;-51
2022/02/04 12:27:29;;;;;;;1.38;1.27;;;7.40;99.90;;;;;;5010480;28;20218;-51
2022/02/04 12:30:20;;;;;;;1.00;0.90;;;7.40;99.90;;;;;;5025596;28;20846;-51
2022/02/04 12:32:51;;;;;;;1.20;1.10;;;7.40;99.90;;;;;;5025726;28;20468;-51
2022/02/04 12:35:19;;;;;;;1.45;1.15;;;7.40;99.90;;;;;;5012590;28;20227;-51
2022/02/04 12:37:51;;;;;;;1.25;1.05;;;7.40;99.90;;;;;;5013899;28;20752;-50
2022/02/04 12:40:21;;;;;;;1.52;1.17;;;7.40;99.90;;;;;;5029691;28;20713;-51
2022/02/04 12:42:51;;;;;;;1.75;1.30;;;7.40;99.90;;;;;;5025041;28;20287;-50
2022/02/04 12:45:21;;;;;;;1.35;1.25;;;7.40;99.90;;;;;;5019537;28;20221;-49
2022/02/04 12:47:52;;;;;;;1.50;1.40;;;7.40;99.90;;;;;;5013542;28;20213;-51
2022/02/04 12:50:26;;;;;;;2.38;2.15;;;7.40;99.90;;;;;;5030465;28;20282;-50
2022/02/04 12:52:54;;;;;;;1.67;1.58;;;7.40;99.90;;;;;;5031598;28;20189;-50
2022/02/04 12:55:35;;;;;;;1.45;1.27;;;7.40;99.90;;;;;;5031163;28;20277;-50
2022/02/04 12:58:14;;;;;;;1.30;1.20;;;7.40;99.90;;;;;;5030278;28;20601;-50
2022/02/04 13:09:49;;;;;;;1.55;1.45;;;7.40;99.90;;;;;;5027308;28;20218;-51
2022/02/04 13:12:17;;;;;;;1.50;1.40;;;7.40;99.90;;;;;;5008194;28;20701;-50
2022/02/04 13:14:48;;;;;;;1.67;1.58;;;7.40;99.90;;;;;;5026613;28;20285;-50
2022/02/04 13:17:31;;;;;;;2.00;1.83;;;7.40;99.90;;;;;;5028899;28;20202;-50
2022/02/04 13:19:59;;;;;;;1.60;1.50;;;7.40;99.90;;;;;;5028299;28;20249;-51
2022/02/04 13:22:27;;;;;;;2.08;1.58;;;7.40;99.90;;;;;;5031428;28;20683;-51
2022/02/04 13:25:11;;;;;;;2.10;1.90;;;7.40;99.90;;;;;;5038519;28;20690;-50
2022/02/04 13:27:58;;;;;;;1.63;1.30;;;7.40;99.90;;;;;;5049547;28;20215;-51
2022/02/04 13:30:30;;;;;;;1.38;1.27;;;7.40;99.90;;;;;;5050760;28;20314;-51
2022/02/04 13:32:58;;;;;;;1.40;1.30;;;7.40;99.90;;;;;;5049619;28;20199;-51
2022/02/04 13:35:35;;;;;;;1.90;1.60;;;7.40;99.90;;;;;;5050038;28;20336;-51
2022/02/04 13:38:14;;;;;;;1.17;1.00;;;7.40;99.90;;;;;;5051241;28;20196;-52
2022/02/04 13:40:46;;;;;;;1.60;1.50;;;7.40;99.90;;;;;;5050556;28;20241;-51
2022/02/04 13:43:29;;;;;;;1.70;1.60;;;7.40;99.90;;;;;;5049851;28;20196;-51
2022/02/04 13:46:07;;;;;;;1.52;1.42;;;7.40;99.90;;;;;;5049902;28;20654;-51
2022/02/04 13:48:52;;;;;;;1.90;1.58;;;7.40;99.90;;;;;;5049439;28;20312;-50
2022/02/04 13:51:27;;;;;;;3.55;2.10;;;7.40;99.90;;;;;;5031048;28;20727;-51
2022/02/04 13:54:22;;;;;;;2.17;1.75;;;7.40;99.90;;;;;;5030340;28;20284;-50
2022/02/04 13:56:58;;;;;;;1.95;1.65;;;7.40;99.90;;;;;;5029902;28;20226;-50
2022/02/04 13:59:38;;;;;;;3.03;2.10;;;7.40;99.90;;;;;;5035927;28;20643;-50
2022/02/04 14:02:11;;;;;;;1.83;1.73;;;7.40;99.90;;;;;;5051159;28;20193;-51
2022/02/04 14:04:53;;;;;;;1.60;1.40;;;7.40;99.90;;;;;;5048399;28;20224;-51
2022/02/04 14:07:34;;;;;;;2.20;2.00;;;7.40;99.90;;;;;;5050786;28;20250;-51
2022/02/04 14:10:14;;;;;;;2.00;1.83;;;7.40;99.90;;;;;;5050200;28;20782;-51
2022/02/04 14:12:43;;;;;;;2.03;1.83;;;7.50;99.90;;;;;;5049323;28;20637;-50
2022/02/04 14:15:15;;;;;;;4.85;1.63;;;7.50;99.90;;;;;;5049647;28;20239;-51
2022/02/04 14:17:45;;;;;;;1.50;1.40;;;7.40;99.90;;;;;;5048054;28;20192;-50
2022/02/04 14:20:13;;;;;;;2.28;1.63;;;7.40;99.90;;;;;;5049796;28;20214;-51
2022/02/04 14:22:41;;;;;;;1.95;1.60;;;7.50;99.90;;;;;;5050323;28;20272;-51
2022/02/04 14:25:10;;;;;;;1.73;1.45;;;7.50;99.90;;;;;;5049348;28;20226;-50
2022/02/04 14:27:38;;;;;;;1.63;1.52;;;7.50;99.90;;;;;;5048799;28;20193;-51
2022/02/04 14:30:16;;;;;;;1.60;1.50;;;7.50;99.90;;;;;;5032923;28;20256;-51
2022/02/04 14:32:52;;;;;;;1.45;1.20;;;7.50;99.90;;;;;;5028652;28;20197;-50
2022/02/04 14:35:28;;;;;;;1.65;1.55;;;7.50;99.90;;;;;;5029229;28;20225;-51
2022/02/04 14:49:29;;;;;;;1.42;1.33;;;7.50;99.90;;;;;;5047667;28;20701;-50
2022/02/04 14:52:14;;;;;;;1.90;1.20;;;7.50;99.90;;;;;;5049760;28;20298;-50
2022/02/04 14:58:39;;;;;;;1.50;1.40;;;7.50;99.90;;;;;;5048861;28;20227;-50
2022/02/04 15:00:42;;;;;;;1.60;1.50;;;7.50;99.90;;;;;;5049077;28;20222;-51
2022/02/04 15:03:25;;;;;;;1.42;1.30;;;7.50;99.90;;;;;;5048066;28;20275;-51
2022/02/04 15:06:09;;;;;;;1.80;1.25;;;7.50;99.90;;;;;;5048009;28;20579;-51
2022/02/04 15:08:58;;;;;;;2.08;1.38;;;7.50;99.90;;;;;;5048527;28;20700;-51
2022/02/04 15:11:31;;;;;;;1.30;1.08;;;7.60;99.90;;;;;;5047908;28;20244;-50
2022/02/04 15:14:02;;;;;;;1.48;1.35;;;7.50;99.90;;;;;;5048980;28;20217;-50
2022/02/04 15:16:31;;;;;;;1.50;1.40;;;7.60;99.90;;;;;;5049462;28;20206;-51
2022/02/04 15:19:00;;;;;;;1.77;1.08;;;7.60;99.90;;;;;;5047405;28;20224;-51
2022/02/04 15:21:30;;;;;;;1.38;1.27;;;7.50;99.90;;;;;;5049342;28;20295;-51
2022/02/04 15:23:59;;;;;;;1.30;1.20;;;7.60;99.90;;;;;;5037501;28;20191;-50
2022/02/04 15:26:29;;;;;;;4.10;1.50;;;7.60;99.90;;;;;;5039347;28;20221;-51
2022/02/04 15:29:01;;;;;;;1.40;1.30;;;7.60;99.90;;;;;;5048475;28;20226;-51
2022/02/04 15:31:40;;;;;;;2.95;1.30;;;7.60;99.90;;;;;;5049310;28;20210;-51
2022/02/04 15:34:09;;;;;;;2.88;1.80;;;7.60;99.90;;;;;;5046347;28;20291;-51
2022/02/04 15:36:43;;;;;;;1.45;1.17;;;7.60;99.90;;;;;;5049370;28;20196;-51
2022/02/04 15:39:14;;;;;;;1.90;1.40;;;7.60;99.90;;;;;;5048221;28;20382;-51
2022/02/04 15:41:46;;;;;;;2.13;1.38;;;7.60;99.90;;;;;;5047370;28;20597;-51
2022/02/04 15:44:21;;;;;;;2.67;1.13;;;7.60;99.90;;;;;;5047106;28;20216;-52
2022/02/04 15:58:08;;;;;;;1.40;1.30;;;7.60;99.90;;;;;;4976814;28;20760;-51
2022/02/04 16:00:54;;;;;;;2.15;1.38;;;7.60;99.90;;;;;;5028261;28;20638;-52
2022/02/04 16:03:44;;;;;;;1.08;0.95;;;7.60;99.90;;;;;;5035097;28;20247;-51
2022/02/04 16:06:15;;;;;;;1.35;1.23;;;7.60;99.90;;;;;;5049093;28;20319;-51
2022/02/04 16:08:44;;;;;;;1.50;1.15;;;7.60;99.90;;;;;;5048450;28;20270;-51
2022/02/04 16:11:29;;;;;;;1.17;1.08;;;7.60;99.90;;;;;;5028384;28;20229;-51
2022/02/04 16:14:14;;;;;;;1.35;0.85;;;7.60;99.90;;;;;;5006887;28;20206;-50
2022/02/04 16:16:47;;;;;;;1.50;1.05;;;7.60;99.90;;;;;;5008633;28;20209;-51
2022/02/04 16:19:27;;;;;;;1.55;1.45;;;7.60;99.90;;;;;;5007711;28;20235;-51
2022/02/04 16:30:26;;;;;;;1.10;1.00;;;7.60;99.90;;;;;;5037063;28;20222;-51
2022/02/04 16:32:55;;;;;;;1.08;0.98;;;7.60;99.90;;;;;;5030774;28;20304;-52
2022/02/04 16:35:25;;;;;;;1.10;1.00;;;7.60;99.90;;;;;;5047259;28;20218;-50
2022/02/04 16:38:02;;;;;;;1.10;1.00;;;7.60;99.90;;;;;;5048259;28;20243;-50
2022/02/04 16:40:32;;;;;;;1.38;1.20;;;7.60;99.90;;;;;;5040969;28;20725;-49
2022/02/04 16:43:01;;;;;;;2.38;1.42;;;7.60;99.90;;;;;;5030162;28;20235;-49
2022/02/04 16:45:30;;;;;;;1.05;0.85;;;7.60;99.90;;;;;;5040614;28;20644;-50
2022/02/04 16:47:58;;;;;;;1.45;1.10;;;7.70;99.90;;;;;;5053149;28;20204;-50
2022/02/04 16:50:28;;;;;;;2.00;1.35;;;7.80;99.90;;;;;;5036668;28;20218;-50
2022/02/04 16:52:56;;;;;;;1.38;1.27;;;7.80;99.90;;;;;;5027764;28;20274;-51
2022/02/04 16:55:24;;;;;;;1.40;1.27;;;7.80;99.90;;;;;;5030000;28;20320;-50
2022/02/04 16:57:56;;;;;;;2.00;1.30;;;7.80;99.90;;;;;;5044761;28;20223;-50
2022/02/04 17:00:26;;;;;;;1.83;1.42;;;7.80;99.90;;;;;;5030852;28;20321;-50
2022/02/04 17:03:01;;;;;;;1.38;1.27;;;7.80;99.90;;;;;;5034633;28;20217;-50
2022/02/04 17:05:38;;;;;;;2.58;1.35;;;7.80;99.90;;;;;;5048466;28;20216;-50
2022/02/04 17:08:08;;;;;;;1.52;1.42;;;7.80;99.90;;;;;;5031458;28;20194;-52
2022/02/04 17:10:42;;;;;;;2.38;1.08;;;7.80;99.90;;;;;;5030558;28;20225;-52
2022/02/04 17:13:12;;;;;;;2.65;1.55;;;7.80;99.90;;;;;;5048837;28;20316;-52
2022/02/04 17:15:40;;;;;;;1.58;1.40;;;7.90;99.90;;;;;;5046986;28;20269;-51
2022/02/04 17:18:09;;;;;;;2.92;1.90;;;7.90;99.90;;;;;;5035345;28;20250;-51
2022/02/04 17:20:38;;;;;;;1.93;1.40;;;7.90;99.90;;;;;;5046727;28;20277;-50
2022/02/04 17:23:08;;;;;;;1.70;1.60;;;7.90;99.90;;;;;;5031604;28;20436;-50
2022/02/04 17:25:38;;;;;;;1.63;1.52;;;7.90;99.90;;;;;;5031273;28;20232;-51
2022/02/04 17:28:06;;;;;;;1.60;1.45;;;7.90;99.90;;;;;;5038115;28;20248;-51
2022/02/04 17:30:36;;;;;;;1.83;1.70;;;7.90;99.90;;;;;;5047919;28;20517;-51
2022/02/04 17:33:05;;;;;;;1.88;1.77;;;7.90;99.90;;;;;;5050205;28;20448;-51
2022/02/04 17:35:33;;;;;;;1.52;1.42;;;7.90;99.90;;;;;;5045924;28;20587;-51
2022/02/04 17:38:02;;;;;;;2.22;1.42;;;7.90;99.90;;;;;;5031678;28;20257;-50
2022/02/04 17:40:31;;;;;;;1.52;1.42;;;7.90;99.90;;;;;;5030532;28;20320;-51
2022/02/04 17:43:00;;;;;;;3.25;1.70;;;7.90;99.90;;;;;;5040224;28;20230;-52
2022/02/04 17:45:29;;;;;;;1.50;1.40;;;7.90;99.90;;;;;;5042221;28;20218;-51
2022/02/04 17:48:05;;;;;;;1.80;1.60;;;7.90;99.90;;;;;;5049002;28;20550;-51
2022/02/04 17:50:40;;;;;;;1.80;1.70;;;7.90;99.90;;;;;;5037694;28;20236;-51
2022/02/04 17:53:14;;;;;;;1.48;1.38;;;7.90;99.90;;;;;;5051089;28;20429;-50